Time;durP1;ratioP1;P1;durP2;ratioP2;P2;SDS_P1;SDS_P2;PMS_P1;PMS_P2;Temp;Humidity;BMP_temperature;BMP_pressure;BME280_temperature;BME280_humidity;BME280_pressure;Samples;Min_cycle;Max_cycle;Signal;HPM_P1;HPM_P2
2022/09/23 00:01:07;;;;;;;5.28;4.18;;;;;;;;;;614628;231;26815;-73
2022/09/23 00:03:36;;;;;;;4.25;3.83;;;;;;;;;;616288;231;26617;-73
2022/09/23 00:06:09;;;;;;;5.60;4.30;;;;;;;;;;614673;230;26777;-73
2022/09/23 00:08:36;;;;;;;6.35;3.92;;;;;;;;;;614260;231;26982;-73
2022/09/23 00:11:08;;;;;;;4.50;3.92;;;;;;;;;;615040;231;26552;-73
2022/09/23 00:13:37;;;;;;;5.20;4.05;;;;;;;;;;616794;231;26646;-73
2022/09/23 00:16:05;;;;;;;5.18;3.65;;;;;;;;;;614422;231;26575;-73
2022/09/23 00:18:34;;;;;;;4.70;4.20;;;;;;;;;;614867;231;26584;-73
2022/09/23 00:21:04;;;;;;;4.12;3.72;;;;;;;;;;615871;231;26638;-73
2022/09/23 00:23:32;;;;;;;6.22;3.97;;;;;;;;;;616675;227;27150;-73
2022/09/23 00:26:01;;;;;;;5.00;3.65;;;;;;;;;;617831;227;26567;-73
2022/09/23 00:28:30;;;;;;;4.20;3.83;;;;;;;;;;617169;228;26827;-73
2022/09/23 00:31:00;;;;;;;4.32;3.92;;;;;;;;;;615237;230;26662;-73
2022/09/23 00:33:29;;;;;;;4.20;3.58;;;;;;;;;;620014;230;26622;-73
2022/09/23 00:35:59;;;;;;;4.47;3.65;;;;;;;;;;619470;230;27272;-73
2022/09/23 00:38:28;;;;;;;4.10;3.70;;;;;;;;;;616127;231;26848;-73
2022/09/23 00:40:57;;;;;;;4.03;3.60;;;;;;;;;;615510;230;26574;-73
2022/09/23 00:43:32;;;;;;;5.03;4.10;;;;;;;;;;617675;230;26939;-73
2022/09/23 00:46:00;;;;;;;3.70;3.30;;;;;;;;;;615385;231;26592;-73
2022/09/23 00:48:29;;;;;;;3.87;3.50;;;;;;;;;;616547;230;26830;-73
2022/09/23 00:50:58;;;;;;;4.70;3.75;;;;;;;;;;615652;230;26572;-73
2022/09/23 00:53:28;;;;;;;3.62;3.40;;;;;;;;;;616381;230;26595;-73
2022/09/23 00:55:57;;;;;;;4.45;3.85;;;;;;;;;;616019;231;26591;-73
2022/09/23 00:58:26;;;;;;;4.12;3.72;;;;;;;;;;613987;234;26780;-73
2022/09/23 01:00:58;;;;;;;3.62;3.30;;;;;;;;;;615600;231;26543;-73
2022/09/23 01:03:24;;;;;;;3.97;3.58;;;;;;;;;;615113;231;26584;-73
2022/09/23 01:05:53;;;;;;;5.55;3.30;;;;;;;;;;615533;231;26576;-73
2022/09/23 01:08:22;;;;;;;4.07;3.33;;;;;;;;;;616037;231;26789;-73
2022/09/23 01:10:50;;;;;;;3.53;3.22;;;;;;;;;;615749;231;26529;-73
2022/09/23 01:13:20;;;;;;;3.67;3.20;;;;;;;;;;615772;231;26824;-73
2022/09/23 01:15:49;;;;;;;3.47;3.17;;;;;;;;;;614395;228;26569;-73
2022/09/23 01:18:24;;;;;;;3.62;3.33;;;;;;;;;;614259;231;26573;-73
2022/09/23 01:21:00;;;;;;;3.97;3.60;;;;;;;;;;618271;231;26581;-73
2022/09/23 01:23:45;;;;;;;3.62;3.28;;;;;;;;;;615745;230;26586;-73
2022/09/23 01:26:29;;;;;;;4.32;3.55;;;;;;;;;;600754;231;26863;-73
2022/09/23 01:28:58;;;;;;;3.97;3.60;;;;;;;;;;611658;231;26644;-73
2022/09/23 01:31:28;;;;;;;3.45;3.15;;;;;;;;;;618350;229;26609;-73
2022/09/23 01:34:00;;;;;;;3.85;3.47;;;;;;;;;;618817;230;26673;-73
2022/09/23 01:36:28;;;;;;;4.45;3.62;;;;;;;;;;617648;229;26566;-73
2022/09/23 01:39:13;;;;;;;3.40;3.10;;;;;;;;;;616134;228;26576;-73
2022/09/23 01:41:58;;;;;;;5.75;3.50;;;;;;;;;;605639;231;26614;-72
2022/09/23 01:44:28;;;;;;;4.03;3.40;;;;;;;;;;604906;233;26898;-73
2022/09/23 01:47:13;;;;;;;4.75;3.58;;;;;;;;;;619609;230;26611;-73
2022/09/23 01:49:42;;;;;;;4.87;3.22;;;;;;;;;;613601;231;26648;-73
2022/09/23 01:52:14;;;;;;;3.65;3.35;;;;;;;;;;615531;230;26590;-73
2022/09/23 01:54:40;;;;;;;3.37;3.08;;;;;;;;;;616291;230;26555;-73
2022/09/23 01:57:10;;;;;;;4.30;3.15;;;;;;;;;;614830;231;26562;-73
2022/09/23 01:59:39;;;;;;;3.33;3.10;;;;;;;;;;615101;230;26798;-73
2022/09/23 02:02:15;;;;;;;4.62;3.50;;;;;;;;;;615508;231;26570;-73
2022/09/23 02:04:45;;;;;;;3.72;3.42;;;;;;;;;;615038;231;26787;-73
2022/09/23 02:07:17;;;;;;;3.70;3.28;;;;;;;;;;617250;230;26540;-73
2022/09/23 02:09:46;;;;;;;3.30;3.00;;;;;;;;;;616329;230;26788;-73
2022/09/23 02:12:15;;;;;;;3.40;3.20;;;;;;;;;;614132;234;26536;-74
2022/09/23 02:15:01;;;;;;;4.15;3.05;;;;;;;;;;616887;231;26626;-73
2022/09/23 02:17:31;;;;;;;4.70;2.92;;;;;;;;;;614417;231;26580;-72
2022/09/23 02:20:00;;;;;;;3.37;3.08;;;;;;;;;;614511;231;26568;-73
2022/09/23 02:22:39;;;;;;;3.08;2.85;;;;;;;;;;615368;229;26591;-73
2022/09/23 02:25:08;;;;;;;3.10;2.90;;;;;;;;;;615522;231;27215;-73
2022/09/23 02:27:39;;;;;;;3.33;3.03;;;;;;;;;;615036;231;26573;-73
2022/09/23 02:30:25;;;;;;;3.53;3.08;;;;;;;;;;614458;231;26831;-73
2022/09/23 02:32:56;;;;;;;2.90;2.70;;;;;;;;;;617032;231;26606;-73
2022/09/23 02:35:31;;;;;;;3.20;2.90;;;;;;;;;;617261;230;26794;-73
2022/09/23 02:38:02;;;;;;;3.70;3.28;;;;;;;;;;614747;231;26564;-73
2022/09/23 02:40:32;;;;;;;3.40;3.10;;;;;;;;;;617945;230;26580;-73
2022/09/23 02:43:01;;;;;;;3.05;2.85;;;;;;;;;;614995;231;26583;-74
2022/09/23 02:45:30;;;;;;;3.50;3.20;;;;;;;;;;616957;231;26597;-74
2022/09/23 02:48:02;;;;;;;3.08;2.87;;;;;;;;;;615599;230;26829;-74
2022/09/23 02:50:30;;;;;;;3.47;3.17;;;;;;;;;;616563;229;26558;-74
2022/09/23 02:52:59;;;;;;;2.87;2.67;;;;;;;;;;618411;230;26808;-73
2022/09/23 02:55:30;;;;;;;3.35;3.05;;;;;;;;;;616821;230;26620;-73
2022/09/23 02:57:58;;;;;;;3.42;3.12;;;;;;;;;;617987;230;26968;-73
2022/09/23 03:00:29;;;;;;;3.22;2.92;;;;;;;;;;615960;230;26615;-73
2022/09/23 03:03:05;;;;;;;3.08;2.60;;;;;;;;;;615637;230;26658;-73
2022/09/23 03:05:33;;;;;;;3.97;3.05;;;;;;;;;;615656;230;26573;-72
2022/09/23 03:08:07;;;;;;;4.00;2.65;;;;;;;;;;617617;230;26842;-72
2022/09/23 03:10:40;;;;;;;2.97;2.72;;;;;;;;;;616699;230;26607;-72
2022/09/23 03:13:11;;;;;;;3.33;2.72;;;;;;;;;;614463;230;26584;-73
2022/09/23 03:15:56;;;;;;;3.15;2.85;;;;;;;;;;616844;230;26863;-74
2022/09/23 03:18:25;;;;;;;2.97;2.67;;;;;;;;;;614637;231;26623;-73
2022/09/23 03:21:08;;;;;;;3.62;3.10;;;;;;;;;;616234;231;26567;-73
2022/09/23 03:23:37;;;;;;;3.15;2.72;;;;;;;;;;612053;231;26606;-69
2022/09/23 03:26:06;;;;;;;3.28;2.97;;;;;;;;;;614584;231;26775;-69
2022/09/23 03:28:35;;;;;;;3.28;2.97;;;;;;;;;;616232;231;26667;-68
2022/09/23 03:31:04;;;;;;;2.90;2.60;;;;;;;;;;615605;231;26796;-69
2022/09/23 03:33:33;;;;;;;3.37;3.08;;;;;;;;;;617490;231;26626;-69
2022/09/23 03:38:36;;;;;;;3.45;2.75;;;;;;;;;;616308;231;26580;-69
2022/09/23 03:41:05;;;;;;;2.85;2.58;;;;;;;;;;614921;231;26567;-68
2022/09/23 03:43:34;;;;;;;3.08;2.87;;;;;;;;;;616373;229;26825;-68
2022/09/23 03:46:03;;;;;;;3.05;2.85;;;;;;;;;;616074;231;26570;-68
2022/09/23 03:48:32;;;;;;;3.10;2.90;;;;;;;;;;615247;231;26806;-68
2022/09/23 03:51:00;;;;;;;3.08;2.75;;;;;;;;;;615014;231;26532;-68
2022/09/23 03:53:29;;;;;;;2.80;2.60;;;;;;;;;;614771;231;26587;-68
2022/09/23 03:55:58;;;;;;;3.28;2.97;;;;;;;;;;618594;226;26622;-67
2022/09/23 03:58:27;;;;;;;3.15;2.92;;;;;;;;;;620587;230;26561;-68
2022/09/23 04:00:56;;;;;;;3.40;3.10;;;;;;;;;;617871;230;26577;-68
2022/09/23 04:03:26;;;;;;;3.40;3.10;;;;;;;;;;614857;231;26594;-68
2022/09/23 04:05:53;;;;;;;3.20;2.90;;;;;;;;;;615933;230;26829;-67
2022/09/23 04:08:22;;;;;;;3.05;2.80;;;;;;;;;;617517;230;26616;-68
2022/09/23 04:10:51;;;;;;;2.75;2.58;;;;;;;;;;615880;231;27074;-67
2022/09/23 04:13:20;;;;;;;3.30;3.00;;;;;;;;;;615380;230;26633;-68
2022/09/23 04:15:49;;;;;;;3.05;2.65;;;;;;;;;;616167;230;26560;-68
2022/09/23 04:18:18;;;;;;;2.65;2.45;;;;;;;;;;615599;231;26571;-68
2022/09/23 04:20:47;;;;;;;2.67;2.47;;;;;;;;;;615282;230;26564;-68
2022/09/23 04:23:15;;;;;;;3.20;2.45;;;;;;;;;;614290;233;26865;-68
2022/09/23 04:25:45;;;;;;;3.33;3.03;;;;;;;;;;614894;231;26576;-68
2022/09/23 04:28:14;;;;;;;3.12;2.83;;;;;;;;;;616029;231;26829;-67
2022/09/23 04:30:44;;;;;;;4.82;2.80;;;;;;;;;;616121;229;26550;-67
2022/09/23 04:33:11;;;;;;;2.85;2.65;;;;;;;;;;615440;231;26560;-67
2022/09/23 04:35:42;;;;;;;2.90;2.60;;;;;;;;;;617466;231;26586;-69
2022/09/23 04:38:09;;;;;;;2.67;2.47;;;;;;;;;;615002;231;26613;-68
2022/09/23 04:40:38;;;;;;;3.37;3.00;;;;;;;;;;615757;230;27305;-68
2022/09/23 04:43:07;;;;;;;2.67;2.47;;;;;;;;;;616541;231;26597;-68
2022/09/23 04:45:36;;;;;;;2.80;2.60;;;;;;;;;;616438;231;26814;-68
2022/09/23 04:48:04;;;;;;;2.62;2.42;;;;;;;;;;614284;231;26559;-69
2022/09/23 04:50:33;;;;;;;2.90;2.70;;;;;;;;;;615523;231;26591;-69
2022/09/23 04:53:02;;;;;;;2.67;2.47;;;;;;;;;;617430;231;26647;-69
2022/09/23 04:55:31;;;;;;;2.78;2.58;;;;;;;;;;615621;231;26576;-69
2022/09/23 04:58:00;;;;;;;3.15;2.80;;;;;;;;;;617865;230;26602;-69
2022/09/23 05:00:29;;;;;;;2.65;2.45;;;;;;;;;;617161;231;26564;-69
2022/09/23 05:02:58;;;;;;;2.60;2.40;;;;;;;;;;614153;231;26834;-69
2022/09/23 05:05:28;;;;;;;2.83;2.60;;;;;;;;;;615510;231;26587;-69
2022/09/23 05:07:56;;;;;;;2.90;2.70;;;;;;;;;;617623;230;26913;-69
2022/09/23 05:10:25;;;;;;;3.25;2.62;;;;;;;;;;616809;230;26625;-69
2022/09/23 05:12:54;;;;;;;3.05;2.83;;;;;;;;;;617456;230;26881;-69
2022/09/23 05:15:22;;;;;;;2.78;2.58;;;;;;;;;;616772;231;26569;-69
2022/09/23 05:17:51;;;;;;;2.45;2.25;;;;;;;;;;615978;231;26632;-69
2022/09/23 05:20:20;;;;;;;3.10;2.50;;;;;;;;;;615199;231;26562;-69
2022/09/23 05:22:49;;;;;;;2.47;2.28;;;;;;;;;;615371;231;26625;-69
2022/09/23 05:25:18;;;;;;;2.58;2.37;;;;;;;;;;615234;231;26851;-69
2022/09/23 05:27:47;;;;;;;2.62;2.47;;;;;;;;;;614783;228;26593;-69
2022/09/23 05:30:16;;;;;;;2.90;2.60;;;;;;;;;;617354;230;26786;-69
2022/09/23 05:32:45;;;;;;;2.60;2.40;;;;;;;;;;615708;230;26618;-69
2022/09/23 05:35:14;;;;;;;2.53;2.30;;;;;;;;;;615461;230;26588;-69
2022/09/23 05:37:43;;;;;;;2.65;2.45;;;;;;;;;;616932;230;26528;-69
2022/09/23 05:40:12;;;;;;;3.22;2.75;;;;;;;;;;618731;230;26590;-60
2022/09/23 05:42:41;;;;;;;3.58;2.80;;;;;;;;;;614260;231;26575;-60
2022/09/23 05:45:09;;;;;;;2.20;2.10;;;;;;;;;;615850;231;26551;-71
2022/09/23 05:47:39;;;;;;;3.70;2.60;;;;;;;;;;615780;228;26816;-71
2022/09/23 05:50:08;;;;;;;2.62;2.42;;;;;;;;;;615935;231;26660;-72
2022/09/23 05:52:37;;;;;;;2.22;2.12;;;;;;;;;;614097;226;26770;-71
2022/09/23 05:55:06;;;;;;;2.72;2.37;;;;;;;;;;615605;231;26586;-71
2022/09/23 05:57:35;;;;;;;3.90;2.62;;;;;;;;;;614523;231;26584;-71
2022/09/23 06:00:04;;;;;;;3.10;2.72;;;;;;;;;;614388;231;26794;-72
2022/09/23 06:02:33;;;;;;;2.80;2.40;;;;;;;;;;615632;231;26579;-72
2022/09/23 06:05:02;;;;;;;3.10;2.67;;;;;;;;;;615212;234;27108;-72
2022/09/23 06:07:31;;;;;;;2.83;2.50;;;;;;;;;;604381;234;26561;-71
2022/09/23 06:10:00;;;;;;;2.70;2.50;;;;;;;;;;615472;231;26586;-72
2022/09/23 06:12:30;;;;;;;2.78;2.58;;;;;;;;;;615634;234;26616;-72
2022/09/23 06:14:58;;;;;;;2.72;2.53;;;;;;;;;;617643;231;26570;-72
2022/09/23 06:17:26;;;;;;;3.90;2.95;;;;;;;;;;617440;231;26890;-72
2022/09/23 06:19:55;;;;;;;2.83;2.62;;;;;;;;;;619879;231;26585;-72
2022/09/23 06:22:25;;;;;;;2.67;2.47;;;;;;;;;;617363;231;26782;-72
2022/09/23 06:24:53;;;;;;;2.85;2.65;;;;;;;;;;613345;233;26583;-72
2022/09/23 06:27:22;;;;;;;2.85;2.65;;;;;;;;;;613374;233;26788;-68
2022/09/23 06:29:51;;;;;;;26.05;4.15;;;;;;;;;;615124;233;26563;-69
2022/09/23 06:32:19;;;;;;;18.75;4.00;;;;;;;;;;622626;228;26581;-69
2022/09/23 06:34:48;;;;;;;7.32;2.58;;;;;;;;;;621504;230;26602;-69
2022/09/23 06:37:17;;;;;;;6.40;2.67;;;;;;;;;;615813;230;26599;-69
2022/09/23 06:39:46;;;;;;;2.55;2.35;;;;;;;;;;619456;231;26801;-69
2022/09/23 06:42:15;;;;;;;4.93;2.62;;;;;;;;;;617486;231;26563;-68
2022/09/23 06:44:44;;;;;;;8.32;2.62;;;;;;;;;;616042;230;26790;-69
2022/09/23 06:47:13;;;;;;;3.58;2.70;;;;;;;;;;619943;231;26588;-68
2022/09/23 06:49:41;;;;;;;2.80;2.60;;;;;;;;;;616013;231;26561;-69
2022/09/23 06:52:10;;;;;;;7.18;2.80;;;;;;;;;;613325;231;26562;-69
2022/09/23 06:54:40;;;;;;;3.30;2.33;;;;;;;;;;614363;231;26648;-69
2022/09/23 06:57:09;;;;;;;3.30;2.97;;;;;;;;;;617793;231;26653;-68
2022/09/23 06:59:37;;;;;;;4.90;2.53;;;;;;;;;;617617;231;26844;-69
2022/09/23 07:02:09;;;;;;;2.65;2.45;;;;;;;;;;616722;231;26624;-68
2022/09/23 07:04:38;;;;;;;2.50;2.30;;;;;;;;;;614524;231;26821;-68
2022/09/23 07:07:09;;;;;;;2.55;2.25;;;;;;;;;;615675;231;26544;-69
2022/09/23 07:09:36;;;;;;;4.18;2.60;;;;;;;;;;613009;231;26919;-69
2022/09/23 07:12:04;;;;;;;2.75;2.30;;;;;;;;;;617280;231;26616;-69
2022/09/23 07:14:33;;;;;;;3.08;2.85;;;;;;;;;;618029;231;26588;-68
2022/09/23 07:17:02;;;;;;;2.97;2.75;;;;;;;;;;615731;231;26651;-69
2022/09/23 07:19:31;;;;;;;3.37;2.47;;;;;;;;;;614938;231;26580;-68
2022/09/23 07:22:00;;;;;;;5.50;2.70;;;;;;;;;;616592;231;26835;-69
2022/09/23 07:24:29;;;;;;;2.78;2.50;;;;;;;;;;616301;231;26632;-69
2022/09/23 07:26:57;;;;;;;2.70;2.50;;;;;;;;;;615380;231;26844;-69
2022/09/23 07:29:26;;;;;;;5.35;2.60;;;;;;;;;;621772;228;26629;-69
2022/09/23 07:31:55;;;;;;;4.68;2.72;;;;;;;;;;618230;231;26789;-69
2022/09/23 07:34:24;;;;;;;3.33;2.50;;;;;;;;;;616949;231;26588;-69
2022/09/23 07:36:53;;;;;;;2.70;2.55;;;;;;;;;;615504;231;26579;-69
2022/09/23 07:39:22;;;;;;;2.70;2.50;;;;;;;;;;614833;231;26525;-69
2022/09/23 07:41:50;;;;;;;2.42;2.22;;;;;;;;;;617229;231;26622;-69
2022/09/23 07:44:20;;;;;;;4.55;3.12;;;;;;;;;;613611;230;26846;-69
2022/09/23 07:46:48;;;;;;;4.47;2.78;;;;;;;;;;615202;230;26536;-69
2022/09/23 07:49:17;;;;;;;3.60;2.40;;;;;;;;;;619122;230;27272;-68
2022/09/23 07:51:46;;;;;;;5.12;2.50;;;;;;;;;;619438;230;26617;-68
2022/09/23 07:54:15;;;;;;;3.00;2.50;;;;;;;;;;619471;230;26596;-69
2022/09/23 07:56:44;;;;;;;3.40;2.70;;;;;;;;;;616861;231;26582;-68
2022/09/23 07:59:14;;;;;;;2.37;2.22;;;;;;;;;;615101;230;26576;-69
2022/09/23 08:01:42;;;;;;;3.45;2.40;;;;;;;;;;616445;230;26542;-70
2022/09/23 08:04:12;;;;;;;3.55;2.80;;;;;;;;;;613724;233;26592;-70
2022/09/23 08:06:41;;;;;;;2.50;2.12;;;;;;;;;;614309;231;26595;-69
2022/09/23 08:09:10;;;;;;;3.12;2.37;;;;;;;;;;621590;231;26616;-69
2022/09/23 08:11:40;;;;;;;2.97;2.67;;;;;;;;;;614149;231;26591;-69
2022/09/23 08:14:09;;;;;;;3.08;2.78;;;;;;;;;;620894;231;26628;-69
2022/09/23 08:16:38;;;;;;;2.50;2.37;;;;;;;;;;620700;231;26672;-69
2022/09/23 08:19:06;;;;;;;3.92;2.80;;;;;;;;;;619746;231;26618;-69
2022/09/23 08:21:37;;;;;;;2.70;2.50;;;;;;;;;;620252;231;26615;-69
2022/09/23 08:24:04;;;;;;;2.78;2.40;;;;;;;;;;614009;231;26879;-69
2022/09/23 08:26:33;;;;;;;2.90;2.67;;;;;;;;;;614692;228;26600;-69
2022/09/23 08:29:02;;;;;;;3.03;2.83;;;;;;;;;;614846;234;26586;-70
2022/09/23 08:31:31;;;;;;;4.03;2.90;;;;;;;;;;613184;228;26558;-70
2022/09/23 08:34:00;;;;;;;2.83;2.60;;;;;;;;;;616763;231;26636;-71
2022/09/23 08:36:29;;;;;;;3.37;3.00;;;;;;;;;;619613;231;26568;-70
2022/09/23 08:38:57;;;;;;;4.05;2.60;;;;;;;;;;618397;231;26657;-70
2022/09/23 08:41:28;;;;;;;3.22;2.97;;;;;;;;;;618146;229;26653;-70
2022/09/23 08:43:57;;;;;;;4.57;2.78;;;;;;;;;;615632;230;26589;-70
2022/09/23 08:46:26;;;;;;;3.87;2.58;;;;;;;;;;615305;231;26573;-70
2022/09/23 08:48:55;;;;;;;2.60;2.40;;;;;;;;;;613544;231;26561;-70
2022/09/23 08:51:25;;;;;;;3.08;2.78;;;;;;;;;;615297;231;26568;-70
2022/09/23 08:53:54;;;;;;;3.65;2.92;;;;;;;;;;615063;233;26759;-70
2022/09/23 08:56:23;;;;;;;2.67;2.33;;;;;;;;;;618264;231;26626;-70
2022/09/23 08:58:55;;;;;;;3.22;2.92;;;;;;;;;;617194;230;26624;-70
2022/09/23 09:01:24;;;;;;;2.78;2.58;;;;;;;;;;615450;231;26553;-70
2022/09/23 09:03:56;;;;;;;3.53;2.75;;;;;;;;;;619373;231;26564;-70
2022/09/23 09:06:26;;;;;;;3.62;2.53;;;;;;;;;;616111;230;26556;-69
2022/09/23 09:08:55;;;;;;;2.97;2.78;;;;;;;;;;614689;230;27311;-70
2022/09/23 09:11:24;;;;;;;2.70;2.42;;;;;;;;;;615690;230;26546;-70
2022/09/23 09:13:53;;;;;;;3.25;2.72;;;;;;;;;;615583;230;26596;-70
2022/09/23 09:16:24;;;;;;;3.00;2.70;;;;;;;;;;617571;230;26589;-71
2022/09/23 09:18:53;;;;;;;2.87;2.58;;;;;;;;;;616737;231;26628;-71
2022/09/23 09:21:23;;;;;;;5.87;2.70;;;;;;;;;;615662;231;26584;-71
2022/09/23 09:23:51;;;;;;;3.20;2.75;;;;;;;;;;613390;234;26596;-71
2022/09/23 09:26:20;;;;;;;4.18;2.33;;;;;;;;;;614877;231;26573;-71
2022/09/23 09:28:51;;;;;;;16.00;3.15;;;;;;;;;;614288;231;26599;-67
2022/09/23 09:31:23;;;;;;;74.43;17.05;;;;;;;;;;612997;231;26612;-73
2022/09/23 09:33:56;;;;;;;1999.90;630.50;;;;;;;;;;614387;231;26630;-73
2022/09/23 09:36:37;;;;;;;1999.90;830.55;;;;;;;;;;620249;231;26644;-72
2022/09/23 09:39:06;;;;;;;1999.90;721.58;;;;;;;;;;616036;230;26630;-70
2022/09/23 09:41:36;;;;;;;1999.90;184.60;;;;;;;;;;616239;231;26591;-70
2022/09/23 09:44:04;;;;;;;36.60;11.73;;;;;;;;;;614991;231;26602;-74
2022/09/23 09:46:35;;;;;;;29.83;15.35;;;;;;;;;;613078;231;26563;-70
2022/09/23 09:49:04;;;;;;;25.23;10.70;;;;;;;;;;613960;231;26564;-69
2022/09/23 09:51:34;;;;;;;31.98;14.23;;;;;;;;;;617655;231;26941;-71
2022/09/23 09:54:09;;;;;;;22.60;9.00;;;;;;;;;;617846;230;26603;-70
2022/09/23 09:56:38;;;;;;;14.93;7.40;;;;;;;;;;615636;230;26626;-71
2022/09/23 09:59:10;;;;;;;13.68;6.60;;;;;;;;;;616052;230;26579;-71
2022/09/23 10:01:37;;;;;;;17.85;6.95;;;;;;;;;;618920;230;26862;-71
2022/09/23 10:04:06;;;;;;;15.77;7.05;;;;;;;;;;614304;231;26582;-71
2022/09/23 10:06:35;;;;;;;20.67;7.25;;;;;;;;;;617778;230;26795;-71
2022/09/23 10:09:10;;;;;;;13.38;6.30;;;;;;;;;;614559;230;26797;-71
2022/09/23 10:11:39;;;;;;;10.18;5.37;;;;;;;;;;614618;230;26829;-70
2022/09/23 10:14:11;;;;;;;9.07;5.10;;;;;;;;;;618036;231;26602;-70
2022/09/23 10:16:40;;;;;;;4.43;3.87;;;;;;;;;;616520;231;26625;-70
2022/09/23 10:19:09;;;;;;;4.65;4.18;;;;;;;;;;615098;233;26624;-70
2022/09/23 10:21:40;;;;;;;5.45;3.97;;;;;;;;;;616987;231;26571;-70
2022/09/23 10:24:07;;;;;;;4.87;3.83;;;;;;;;;;618255;231;26558;-71
2022/09/23 10:26:37;;;;;;;6.47;3.95;;;;;;;;;;615041;231;26783;-70
2022/09/23 10:29:26;;;;;;;4.95;3.42;;;;;;;;;;614939;231;26922;-70
2022/09/23 10:32:01;;;;;;;5.05;3.47;;;;;;;;;;613482;231;26616;-70
2022/09/23 10:34:29;;;;;;;8.80;4.00;;;;;;;;;;615548;231;26588;-70
2022/09/23 10:37:01;;;;;;;4.78;3.72;;;;;;;;;;614928;231;26590;-71
2022/09/23 10:47:31;;;;;;;4.68;3.78;;;;;;;;;;618790;231;26858;-70
2022/09/23 10:49:58;;;;;;;5.95;3.85;;;;;;;;;;617269;231;26781;-70
2022/09/23 10:52:35;;;;;;;3.03;2.75;;;;;;;;;;616989;231;26629;-71
2022/09/23 10:55:10;;;;;;;4.25;3.25;;;;;;;;;;617520;231;26586;-67
2022/09/23 10:57:42;;;;;;;3.85;3.10;;;;;;;;;;616212;231;26622;-70
2022/09/23 11:00:15;;;;;;;5.28;2.83;;;;;;;;;;614084;231;26693;-70
2022/09/23 11:02:49;;;;;;;4.25;2.87;;;;;;;;;;614952;231;26582;-70
2022/09/23 11:05:33;;;;;;;6.22;3.37;;;;;;;;;;614592;230;26821;-70
2022/09/23 11:08:06;;;;;;;3.87;2.85;;;;;;;;;;612323;229;26838;-70
2022/09/23 11:10:48;;;;;;;3.30;3.00;;;;;;;;;;614164;231;26570;-70
2022/09/23 11:13:30;;;;;;;2.78;2.55;;;;;;;;;;614049;233;26820;-70
2022/09/23 11:16:00;;;;;;;3.33;2.83;;;;;;;;;;612756;233;26623;-70
2022/09/23 11:18:47;;;;;;;3.78;3.00;;;;;;;;;;613987;233;26606;-71
2022/09/23 11:21:22;;;;;;;3.22;2.92;;;;;;;;;;614088;232;26571;-71
2022/09/23 11:23:56;;;;;;;71.03;15.43;;;;;;;;;;613101;231;26583;-66
2022/09/23 11:26:26;;;;;;;123.22;23.98;;;;;;;;;;614455;231;26588;-69
2022/09/23 11:29:12;;;;;;;467.85;57.25;;;;;;;;;;615310;231;26835;-70
2022/09/23 11:31:55;;;;;;;107.50;25.92;;;;;;;;;;609342;231;26597;-70
2022/09/23 11:34:40;;;;;;;104.53;22.62;;;;;;;;;;611762;230;26648;-68
2022/09/23 11:37:11;;;;;;;52.08;11.75;;;;;;;;;;615324;230;26793;-64
2022/09/23 11:39:41;;;;;;;34.58;9.70;;;;;;;;;;614979;233;26612;-68
2022/09/23 11:42:11;;;;;;;44.45;11.60;;;;;;;;;;613301;234;26814;-69
2022/09/23 11:44:40;;;;;;;38.83;11.10;;;;;;;;;;618215;231;26579;-70
2022/09/23 11:47:10;;;;;;;50.95;12.55;;;;;;;;;;614098;231;26603;-70
2022/09/23 11:49:39;;;;;;;42.62;11.02;;;;;;;;;;615037;231;27278;-70
2022/09/23 11:52:09;;;;;;;30.48;9.15;;;;;;;;;;620617;231;26576;-70
2022/09/23 11:54:39;;;;;;;11.52;4.70;;;;;;;;;;622135;231;26837;-70
2022/09/23 11:57:09;;;;;;;8.25;4.22;;;;;;;;;;615181;231;26584;-67
2022/09/23 11:59:39;;;;;;;16.80;4.00;;;;;;;;;;614644;231;26594;-71
2022/09/23 12:02:25;;;;;;;9.02;3.95;;;;;;;;;;617891;231;26807;-72
2022/09/23 12:04:59;;;;;;;7.05;3.08;;;;;;;;;;615628;231;26590;-72
2022/09/23 12:07:26;;;;;;;6.30;3.40;;;;;;;;;;614128;231;26906;-71
2022/09/23 12:09:58;;;;;;;8.60;3.62;;;;;;;;;;615014;231;26569;-72
2022/09/23 12:12:26;;;;;;;7.97;3.20;;;;;;;;;;614720;231;26541;-71
2022/09/23 12:14:56;;;;;;;6.93;3.80;;;;;;;;;;614730;231;26577;-71
2022/09/23 12:17:27;;;;;;;5.87;2.97;;;;;;;;;;616424;230;26617;-71
2022/09/23 12:20:01;;;;;;;7.20;3.30;;;;;;;;;;614332;230;26600;-71
2022/09/23 12:22:36;;;;;;;4.53;2.45;;;;;;;;;;620223;228;26917;-71
2022/09/23 12:25:12;;;;;;;4.32;2.70;;;;;;;;;;613939;230;26586;-71
2022/09/23 12:27:43;;;;;;;3.95;2.50;;;;;;;;;;615423;230;26570;-71
2022/09/23 12:30:16;;;;;;;2.60;2.40;;;;;;;;;;618405;231;26596;-71
2022/09/23 12:32:45;;;;;;;3.12;2.60;;;;;;;;;;616664;230;26820;-71
2022/09/23 12:35:20;;;;;;;2.65;2.45;;;;;;;;;;616774;231;26537;-71
2022/09/23 12:37:48;;;;;;;3.08;2.30;;;;;;;;;;621306;230;26532;-70
2022/09/23 12:40:18;;;;;;;4.75;2.80;;;;;;;;;;615806;231;26560;-70
2022/09/23 12:42:46;;;;;;;4.00;2.30;;;;;;;;;;620356;230;26661;-70
2022/09/23 12:45:33;;;;;;;2.20;2.00;;;;;;;;;;615596;230;26886;-70
2022/09/23 12:48:04;;;;;;;3.97;2.92;;;;;;;;;;616578;230;26785;-70
2022/09/23 12:50:48;;;;;;;6.32;3.12;;;;;;;;;;614024;230;26873;-71
2022/09/23 12:53:22;;;;;;;4.70;3.05;;;;;;;;;;614783;233;26797;-71
2022/09/23 12:55:51;;;;;;;2.92;2.35;;;;;;;;;;612768;234;26808;-71
2022/09/23 12:58:26;;;;;;;2.67;2.47;;;;;;;;;;617003;231;26626;-71
2022/09/23 13:01:00;;;;;;;2.20;2.00;;;;;;;;;;617752;231;26579;-71
2022/09/23 13:08:40;;;;;;;2.55;2.12;;;;;;;;;;616728;231;26560;-71
2022/09/23 13:11:15;;;;;;;4.07;2.22;;;;;;;;;;615361;231;26564;-76
2022/09/23 13:13:43;;;;;;;2.47;2.28;;;;;;;;;;615822;230;26628;-74
2022/09/23 13:16:12;;;;;;;6.28;2.42;;;;;;;;;;614892;231;26611;-74
2022/09/23 13:18:48;;;;;;;6.22;2.37;;;;;;;;;;614067;231;26583;-75
2022/09/23 13:21:17;;;;;;;7.62;2.62;;;;;;;;;;615250;231;26805;-74
2022/09/23 13:23:52;;;;;;;2.40;2.10;;;;;;;;;;614999;231;26587;-76
2022/09/23 13:26:20;;;;;;;2.60;2.40;;;;;;;;;;615502;231;26787;-76
2022/09/23 13:28:53;;;;;;;4.65;2.70;;;;;;;;;;618154;229;26623;-76
2022/09/23 13:31:22;;;;;;;3.92;3.05;;;;;;;;;;621511;230;26801;-75
2022/09/23 13:33:51;;;;;;;2.72;2.53;;;;;;;;;;618124;231;26574;-75
2022/09/23 13:36:20;;;;;;;4.55;2.62;;;;;;;;;;618462;230;26570;-75
2022/09/23 13:38:49;;;;;;;4.25;2.65;;;;;;;;;;619410;230;26639;-75
2022/09/23 13:41:18;;;;;;;3.35;2.62;;;;;;;;;;615053;231;26588;-75
2022/09/23 13:43:47;;;;;;;2.83;2.42;;;;;;;;;;618378;230;26616;-74
2022/09/23 13:46:18;;;;;;;2.47;2.28;;;;;;;;;;616545;231;26574;-75
2022/09/23 13:48:47;;;;;;;2.67;1.90;;;;;;;;;;617180;230;26826;-75
2022/09/23 13:51:18;;;;;;;2.12;1.90;;;;;;;;;;615427;230;26560;-75
2022/09/23 13:53:46;;;;;;;1.77;1.67;;;;;;;;;;614791;230;26603;-75
2022/09/23 13:56:15;;;;;;;2.72;2.12;;;;;;;;;;616843;230;26837;-75
2022/09/23 13:58:44;;;;;;;1.90;1.80;;;;;;;;;;616330;230;26616;-75
2022/09/23 14:01:19;;;;;;;4.12;1.85;;;;;;;;;;615274;228;26640;-74
2022/09/23 14:03:47;;;;;;;2.10;2.00;;;;;;;;;;615344;230;27135;-75
2022/09/23 14:06:16;;;;;;;5.03;2.08;;;;;;;;;;613728;231;26569;-75
2022/09/23 14:08:46;;;;;;;2.72;2.00;;;;;;;;;;613238;231;26845;-75
2022/09/23 14:11:14;;;;;;;4.57;2.12;;;;;;;;;;617598;231;26628;-74
2022/09/23 14:13:43;;;;;;;3.58;1.87;;;;;;;;;;618971;231;26640;-73
2022/09/23 14:16:13;;;;;;;2.00;1.80;;;;;;;;;;614356;231;26818;-74
2022/09/23 14:18:40;;;;;;;1.98;1.52;;;;;;;;;;615046;231;26565;-73
2022/09/23 14:21:15;;;;;;;2.45;1.98;;;;;;;;;;612816;229;26865;-76
2022/09/23 14:23:44;;;;;;;3.62;1.85;;;;;;;;;;613720;231;26863;-76
2022/09/23 14:26:13;;;;;;;2.92;1.85;;;;;;;;;;613473;231;26572;-73
2022/09/23 14:28:42;;;;;;;2.42;1.80;;;;;;;;;;614995;231;26617;-75
2022/09/23 14:31:11;;;;;;;2.00;1.80;;;;;;;;;;615323;231;26567;-76
2022/09/23 14:33:40;;;;;;;2.00;1.62;;;;;;;;;;617264;231;26618;-75
2022/09/23 14:38:49;;;;;;;8.23;2.15;;;;;;;;;;616199;231;26625;-76
2022/09/23 14:41:16;;;;;;;3.40;1.87;;;;;;;;;;617676;228;26596;-75
2022/09/23 14:43:45;;;;;;;3.17;1.90;;;;;;;;;;623352;230;26807;-76
2022/09/23 14:46:15;;;;;;;1.92;1.70;;;;;;;;;;619231;230;26563;-75
2022/09/23 14:48:44;;;;;;;4.35;1.58;;;;;;;;;;618960;231;26819;-76
2022/09/23 14:51:13;;;;;;;3.37;1.85;;;;;;;;;;620274;230;26611;-75
2022/09/23 14:53:42;;;;;;;1.98;1.48;;;;;;;;;;615997;230;26639;-70
2022/09/23 14:56:10;;;;;;;3.08;1.70;;;;;;;;;;615677;229;26624;-70
2022/09/23 14:58:42;;;;;;;2.37;1.92;;;;;;;;;;619630;230;26569;-70
2022/09/23 15:01:17;;;;;;;2.10;1.55;;;;;;;;;;616915;230;26846;-70
2022/09/23 15:03:46;;;;;;;2.55;1.60;;;;;;;;;;613633;230;27294;-69
2022/09/23 15:06:16;;;;;;;2.08;1.80;;;;;;;;;;613807;231;26635;-69
2022/09/23 15:08:44;;;;;;;2.47;1.80;;;;;;;;;;613771;228;26966;-70
2022/09/23 15:11:13;;;;;;;3.97;1.62;;;;;;;;;;614014;233;26607;-70
2022/09/23 15:13:43;;;;;;;2.47;1.55;;;;;;;;;;614757;233;26628;-70
2022/09/23 15:16:10;;;;;;;3.28;1.65;;;;;;;;;;613576;231;26621;-70
2022/09/23 15:18:40;;;;;;;2.25;1.60;;;;;;;;;;621998;231;27047;-69